createdAt,value
2022-11-29T00:01:14.332Z,31.80
2022-11-29T00:03:47.209Z,36.65
2022-11-29T00:06:20.938Z,33.55
2022-11-29T00:08:54.922Z,29.90
2022-11-29T00:11:47.709Z,28.60
2022-11-29T00:14:21.664Z,33.00
2022-11-29T00:16:55.896Z,32.27
2022-11-29T00:19:29.355Z,30.47
2022-11-29T00:22:02.588Z,24.65
2022-11-29T00:24:36.524Z,34.10
2022-11-29T00:27:09.045Z,32.25
2022-11-29T00:29:42.244Z,30.80
2022-11-29T00:32:14.679Z,32.72
2022-11-29T00:34:47.588Z,33.13
2022-11-29T00:37:20.156Z,37.47
2022-11-29T00:39:53.150Z,33.38
2022-11-29T00:42:25.756Z,32.13
2022-11-29T00:44:58.681Z,32.77
2022-11-29T00:47:31.199Z,32.58
2022-11-29T00:50:04.502Z,32.60
2022-11-29T00:52:37.216Z,29.80
2022-11-29T00:55:10.249Z,33.05
2022-11-29T00:57:42.897Z,31.88
2022-11-29T01:00:16.127Z,28.47
2022-11-29T01:02:48.685Z,35.15
2022-11-29T01:05:21.731Z,33.25
2022-11-29T01:07:54.428Z,33.80
2022-11-29T01:10:27.378Z,39.75
2022-11-29T01:12:59.932Z,31.42
2022-11-29T01:15:32.967Z,37.13
2022-11-29T01:18:05.760Z,34.27
2022-11-29T01:20:38.776Z,33.58
2022-11-29T01:23:11.504Z,38.25
2022-11-29T01:25:44.348Z,28.08
2022-11-29T01:28:16.938Z,41.85
2022-11-29T01:30:49.788Z,34.65
2022-11-29T01:33:22.735Z,39.15
2022-11-29T01:35:55.719Z,32.97
2022-11-29T01:38:28.395Z,33.17
2022-11-29T01:41:01.377Z,30.42
2022-11-29T01:43:34.401Z,37.83
2022-11-29T01:46:07.464Z,33.97
2022-11-29T01:54:10.463Z,30.17
2022-11-29T01:56:45.658Z,40.20
2022-11-29T01:59:23.609Z,39.87
2022-11-29T02:02:07.317Z,35.92
2022-11-29T02:04:42.124Z,32.70
2022-11-29T02:07:15.579Z,32.80
2022-11-29T02:09:48.258Z,30.83
2022-11-29T02:12:30.891Z,29.67
2022-11-29T02:15:22.045Z,29.50
2022-11-29T02:17:55.134Z,31.77
2022-11-29T02:20:46.385Z,29.40
2022-11-29T02:23:33.070Z,34.10
2022-11-29T02:26:17.858Z,30.17
2022-11-29T02:28:53.858Z,28.00
2022-11-29T02:31:44.979Z,28.73
2022-11-29T02:34:31.919Z,32.10
2022-11-29T02:37:30.712Z,27.55
2022-11-29T02:40:22.312Z,38.63
2022-11-29T02:42:57.011Z,36.73
2022-11-29T02:45:48.947Z,28.73
2022-11-29T02:48:41.824Z,29.38
2022-11-29T02:51:21.262Z,29.40
2022-11-29T02:53:58.965Z,42.40
2022-11-29T02:56:34.743Z,41.35
2022-11-29T02:59:07.296Z,37.90
2022-11-29T03:01:59.250Z,46.03
2022-11-29T03:04:48.756Z,30.55
2022-11-29T03:07:25.899Z,31.35
2022-11-29T03:10:05.497Z,36.13
2022-11-29T03:12:43.728Z,37.83
2022-11-29T03:15:19.058Z,35.60
2022-11-29T03:18:10.247Z,42.28
2022-11-29T03:21:00.885Z,42.70
2022-11-29T03:23:36.799Z,33.25
2022-11-29T03:26:11.657Z,40.80
2022-11-29T03:29:07.494Z,31.75
2022-11-29T03:31:46.562Z,37.78
2022-11-29T03:34:39.626Z,40.43
2022-11-29T03:37:17.932Z,38.53
2022-11-29T03:39:50.889Z,39.25
2022-11-29T03:42:31.048Z,34.33
2022-11-29T03:45:08.129Z,38.60
2022-11-29T03:47:45.492Z,34.38
2022-11-29T03:50:23.559Z,32.25
2022-11-29T03:52:56.117Z,39.65
2022-11-29T03:55:49.467Z,37.75
2022-11-29T03:58:28.264Z,34.20
2022-11-29T04:01:04.137Z,37.40
2022-11-29T04:03:55.225Z,34.05
2022-11-29T04:06:36.920Z,35.10
2022-11-29T04:09:27.912Z,35.92
2022-11-29T04:12:03.673Z,36.37
2022-11-29T04:14:38.988Z,35.50
2022-11-29T04:17:14.954Z,43.92
2022-11-29T04:20:06.109Z,38.42
2022-11-29T04:22:57.541Z,40.08
2022-11-29T04:25:49.167Z,35.70
2022-11-29T04:28:34.188Z,36.70
2022-11-29T04:31:06.691Z,40.95
2022-11-29T04:33:39.601Z,35.78
2022-11-29T04:36:26.446Z,40.72
2022-11-29T04:39:05.689Z,35.17
2022-11-29T04:41:38.199Z,36.37
2022-11-29T04:44:13.884Z,41.05
2022-11-29T04:46:46.357Z,39.13
2022-11-29T04:49:37.767Z,40.70
2022-11-29T04:52:23.239Z,39.83
2022-11-29T04:55:26.340Z,37.53
2022-11-29T04:58:03.105Z,37.92
2022-11-29T05:00:39.712Z,37.42
2022-11-29T05:03:16.875Z,39.63
2022-11-29T05:06:02.092Z,34.72
2022-11-29T05:08:46.793Z,47.28
2022-11-29T05:11:41.671Z,36.72
2022-11-29T05:14:32.873Z,42.28
2022-11-29T05:17:24.232Z,38.97
2022-11-29T05:20:01.877Z,34.67
2022-11-29T05:22:53.502Z,36.80
2022-11-29T05:25:44.661Z,44.22
2022-11-29T05:28:33.644Z,45.33
2022-11-29T05:31:24.768Z,39.78
2022-11-29T05:33:57.671Z,35.93
2022-11-29T05:36:36.511Z,36.85
2022-11-29T05:39:30.426Z,43.83
2022-11-29T05:42:21.680Z,34.30
2022-11-29T05:44:59.309Z,40.47
2022-11-29T05:47:42.179Z,47.03
2022-11-29T05:50:18.151Z,39.30
2022-11-29T05:52:54.190Z,46.50
2022-11-29T05:55:39.755Z,33.63
2022-11-29T05:58:17.916Z,40.58
2022-11-29T06:01:02.111Z,39.08
2022-11-29T06:03:41.622Z,33.90
2022-11-29T06:06:18.166Z,43.95
2022-11-29T06:09:11.098Z,37.50
2022-11-29T06:11:52.550Z,43.60
2022-11-29T06:14:44.088Z,35.58
2022-11-29T06:17:25.879Z,36.95
2022-11-29T06:20:17.225Z,36.92
2022-11-29T06:22:59.254Z,39.30
2022-11-29T06:25:32.049Z,36.35
2022-11-29T06:28:17.284Z,35.85
2022-11-29T06:30:55.750Z,31.73
2022-11-29T06:33:34.401Z,37.90
2022-11-29T06:36:16.389Z,36.17
2022-11-29T06:38:49.505Z,35.45
2022-11-29T06:41:23.679Z,34.05
2022-11-29T06:43:56.792Z,39.97
2022-11-29T06:46:49.168Z,42.72
2022-11-29T06:49:27.931Z,35.88
2022-11-29T06:52:26.706Z,38.20
2022-11-29T06:55:00.179Z,32.72
2022-11-29T06:57:38.822Z,38.22
2022-11-29T07:00:15.098Z,36.22
2022-11-29T07:02:57.448Z,38.67
2022-11-29T07:05:31.883Z,36.60
2022-11-29T07:08:06.114Z,37.97
2022-11-29T07:10:40.108Z,47.90
2022-11-29T07:13:14.317Z,43.85
2022-11-29T07:15:47.432Z,43.78
2022-11-29T07:18:20.241Z,31.50
2022-11-29T07:21:02.026Z,38.05
2022-11-29T07:23:53.202Z,31.87
2022-11-29T07:26:26.557Z,37.88
2022-11-29T07:29:05.317Z,35.15
2022-11-29T07:31:41.350Z,42.00
2022-11-29T07:34:18.463Z,41.20
2022-11-29T07:36:57.883Z,36.85
2022-11-29T07:39:48.074Z,34.40
2022-11-29T07:42:34.019Z,39.45
2022-11-29T07:45:14.982Z,43.00
2022-11-29T07:47:49.135Z,38.28
2022-11-29T07:50:22.323Z,34.25
2022-11-29T07:52:56.023Z,37.25
2022-11-29T07:55:29.978Z,45.92
2022-11-29T07:58:03.086Z,38.63
2022-11-29T08:00:35.966Z,42.03
2022-11-29T08:03:09.767Z,35.30
2022-11-29T08:05:45.353Z,42.58
2022-11-29T08:08:18.300Z,37.33
2022-11-29T08:10:50.876Z,40.90
2022-11-29T08:13:23.976Z,39.38
2022-11-29T08:15:56.598Z,33.75
2022-11-29T08:18:29.811Z,37.38
2022-11-29T08:21:06.104Z,38.60
2022-11-29T08:23:38.922Z,36.60
2022-11-29T08:26:11.962Z,38.65
2022-11-29T08:28:45.105Z,35.97
2022-11-29T08:31:17.964Z,38.80
2022-11-29T08:33:50.925Z,41.47
2022-11-29T08:36:23.449Z,39.33
2022-11-29T08:39:03.459Z,44.08
2022-11-29T08:41:40.171Z,39.63
2022-11-29T08:44:13.080Z,35.45
2022-11-29T08:47:04.626Z,36.77
2022-11-29T08:49:57.474Z,35.47
2022-11-29T08:52:55.636Z,41.55
2022-11-29T08:55:31.002Z,34.72
2022-11-29T08:58:05.488Z,35.67
2022-11-29T09:00:38.519Z,37.70
2022-11-29T09:03:29.472Z,36.22
2022-11-29T09:06:09.000Z,33.03
2022-11-29T09:08:45.362Z,41.92
2022-11-29T09:11:21.264Z,35.28
2022-11-29T09:13:56.309Z,36.08
2022-11-29T09:16:30.761Z,35.87
2022-11-29T09:19:04.441Z,34.38
2022-11-29T09:21:37.515Z,33.85
2022-11-29T09:24:11.024Z,42.92
2022-11-29T09:26:47.284Z,41.10
2022-11-29T09:29:19.968Z,40.95
2022-11-29T09:31:52.875Z,39.28
2022-11-29T09:34:25.532Z,37.30
2022-11-29T09:36:58.545Z,32.78
2022-11-29T09:39:31.161Z,30.25
2022-11-29T09:42:13.142Z,35.97
2022-11-29T09:44:45.852Z,35.83
2022-11-29T09:47:18.900Z,33.43
2022-11-29T09:50:10.012Z,44.58
2022-11-29T09:53:15.462Z,38.47
2022-11-29T09:55:50.824Z,35.63
2022-11-29T09:58:27.135Z,36.13
2022-11-29T10:01:03.316Z,25.63
2022-11-29T10:03:41.295Z,38.88
2022-11-29T10:06:16.516Z,35.08
2022-11-29T10:08:52.475Z,31.30
2022-11-29T10:11:31.195Z,32.85
2022-11-29T10:14:10.807Z,37.70
2022-11-29T10:16:51.270Z,30.70
2022-11-29T10:19:33.561Z,34.35
2022-11-29T10:22:08.150Z,35.65
2022-11-29T10:24:42.730Z,30.15
2022-11-29T10:27:24.109Z,36.05
2022-11-29T10:29:57.598Z,35.00
2022-11-29T10:32:32.510Z,31.00
2022-11-29T10:35:06.318Z,30.40
2022-11-29T10:37:39.295Z,29.58
2022-11-29T10:40:15.367Z,29.23
2022-11-29T10:42:53.658Z,34.07
2022-11-29T10:45:39.304Z,25.50
2022-11-29T10:48:13.015Z,26.98
2022-11-29T10:50:48.861Z,43.22
2022-11-29T10:53:31.116Z,26.75
2022-11-29T10:56:17.221Z,34.80
2022-11-29T10:58:58.208Z,24.13
2022-11-29T11:01:34.033Z,31.35
2022-11-29T11:04:10.236Z,25.88
2022-11-29T11:06:49.472Z,22.95
2022-11-29T11:09:22.156Z,25.80
2022-11-29T11:11:56.766Z,24.60
2022-11-29T11:14:30.662Z,28.15
2022-11-29T11:17:26.682Z,25.02
2022-11-29T11:20:01.300Z,29.80
2022-11-29T11:22:35.476Z,29.70
2022-11-29T11:25:24.906Z,24.95
2022-11-29T11:28:00.487Z,23.55
2022-11-29T11:30:33.467Z,30.33
2022-11-29T11:33:09.441Z,30.00
2022-11-29T11:35:42.013Z,40.90
2022-11-29T11:38:16.822Z,33.13
2022-11-29T11:40:53.604Z,30.40
2022-11-29T11:43:31.759Z,34.25
2022-11-29T11:46:07.896Z,31.35
2022-11-29T11:48:42.708Z,27.25
2022-11-29T11:51:25.682Z,39.33
2022-11-29T11:53:58.709Z,27.85
2022-11-29T11:56:34.688Z,31.83
2022-11-29T11:59:16.828Z,32.95
2022-11-29T12:01:49.369Z,31.00
2022-11-29T12:04:34.331Z,34.17
2022-11-29T12:07:38.695Z,25.13
2022-11-29T12:10:19.073Z,19.60
2022-11-29T12:12:52.260Z,29.80
2022-11-29T12:15:38.608Z,25.08
2022-11-29T12:18:12.675Z,17.55
2022-11-29T12:20:56.460Z,19.08
2022-11-29T12:23:39.861Z,20.83
2022-11-29T12:26:55.380Z,21.60
2022-11-29T12:29:19.751Z,25.77
2022-11-29T12:31:59.595Z,20.88
2022-11-29T12:34:47.508Z,16.08
2022-11-29T12:37:26.681Z,17.73
2022-11-29T12:40:14.355Z,20.13
2022-11-29T12:42:51.896Z,20.80
2022-11-29T12:45:35.056Z,21.00
2022-11-29T12:48:20.031Z,17.73
2022-11-29T12:50:52.688Z,19.67
2022-11-29T12:53:28.268Z,20.13
2022-11-29T12:56:07.460Z,15.85
2022-11-29T12:58:49.767Z,13.60
2022-11-29T13:01:31.617Z,17.25
2022-11-29T13:04:04.689Z,14.60
2022-11-29T13:06:49.394Z,15.57
2022-11-29T13:09:31.659Z,13.60
2022-11-29T13:12:16.053Z,15.23
2022-11-29T13:14:58.167Z,13.98
2022-11-29T13:17:34.018Z,13.05
2022-11-29T13:20:10.100Z,16.30
2022-11-29T13:22:52.371Z,13.60
2022-11-29T13:25:27.892Z,16.90
2022-11-29T13:28:08.173Z,12.13
2022-11-29T13:30:41.696Z,14.33
2022-11-29T13:33:27.434Z,15.70
2022-11-29T13:36:09.169Z,12.95
2022-11-29T13:38:41.688Z,17.83
2022-11-29T13:41:14.606Z,14.95
2022-11-29T13:43:55.232Z,15.95
2022-11-29T13:46:35.661Z,23.33
2022-11-29T13:49:19.653Z,21.63
2022-11-29T13:52:04.319Z,13.48
2022-11-29T13:54:36.836Z,17.00
2022-11-29T13:57:10.229Z,17.77
2022-11-29T13:59:49.125Z,18.17
2022-11-29T14:02:30.458Z,18.85
2022-11-29T14:05:03.708Z,14.55
2022-11-29T14:07:56.623Z,17.10
2022-11-29T14:10:30.213Z,17.17
2022-11-29T14:13:05.164Z,22.50
2022-11-29T14:15:38.070Z,14.23
2022-11-29T14:18:46.513Z,20.00
2022-11-29T14:21:19.046Z,22.20
2022-11-29T14:23:51.948Z,19.55
2022-11-29T14:26:28.665Z,20.37
2022-11-29T14:29:05.662Z,18.40
2022-11-29T14:31:48.874Z,24.67
2022-11-29T14:34:27.215Z,15.65
2022-11-29T14:37:05.624Z,15.23
2022-11-29T14:39:43.268Z,19.38
2022-11-29T14:42:24.120Z,17.25
2022-11-29T14:45:07.311Z,18.25
2022-11-29T14:47:48.317Z,19.75
2022-11-29T14:50:38.404Z,21.63
2022-11-29T14:53:28.888Z,15.65
2022-11-29T14:56:20.359Z,23.75
2022-11-29T14:59:13.096Z,21.87
2022-11-29T15:01:46.516Z,18.80
2022-11-29T15:04:19.302Z,20.67
2022-11-29T15:06:54.990Z,21.30
2022-11-29T15:09:27.944Z,20.17
2022-11-29T15:12:13.016Z,25.27
2022-11-29T15:15:04.113Z,23.48
2022-11-29T15:17:55.114Z,39.30
2022-11-29T15:20:39.689Z,23.52
2022-11-29T15:23:18.679Z,25.65
2022-11-29T15:25:52.544Z,38.53
2022-11-29T15:28:26.676Z,34.67
2022-11-29T15:31:09.913Z,34.73
2022-11-29T17:00:32.320Z,44.72
2022-11-29T17:03:05.244Z,43.90
2022-11-29T17:05:43.134Z,48.42
2022-11-29T17:08:17.661Z,39.53
2022-11-29T17:10:50.356Z,52.00
2022-11-29T17:13:24.622Z,53.15
2022-11-29T17:15:57.314Z,43.17
2022-11-29T17:18:30.645Z,48.05
2022-11-29T17:21:03.186Z,49.75
2022-11-29T17:23:36.071Z,44.85
2022-11-29T17:26:09.659Z,50.17
2022-11-29T17:28:43.733Z,44.10
2022-11-29T17:31:17.676Z,33.92
2022-11-29T17:33:51.455Z,33.33
2022-11-29T17:36:23.925Z,42.53
2022-11-29T17:38:57.009Z,40.80
2022-11-29T17:41:29.871Z,42.27
2022-11-29T17:44:03.052Z,40.35
2022-11-29T17:46:36.748Z,41.72
2022-11-29T17:49:10.252Z,45.53
2022-11-29T17:51:51.781Z,43.50
2022-11-29T17:54:25.040Z,47.65
2022-11-29T17:56:57.539Z,50.40
2022-11-29T17:59:30.374Z,48.60
2022-11-29T18:02:04.211Z,59.60
2022-11-29T18:04:37.765Z,67.43
2022-11-29T18:07:10.347Z,63.97
2022-11-29T18:09:43.645Z,58.30
2022-11-29T18:12:16.838Z,55.25
2022-11-29T18:14:51.233Z,59.00
2022-11-29T18:17:23.843Z,61.15
2022-11-29T18:19:56.841Z,70.65
2022-11-29T18:22:29.455Z,66.50
2022-11-29T18:25:30.757Z,64.28
2022-11-29T18:27:55.287Z,64.83
2022-11-29T18:30:28.258Z,74.00
2022-11-29T18:33:00.941Z,68.38
2022-11-29T18:35:33.779Z,66.47
2022-11-29T18:38:15.408Z,58.42
2022-11-29T18:40:49.147Z,58.00
2022-11-29T18:43:21.662Z,63.13
2022-11-29T18:45:54.627Z,60.30
2022-11-29T18:48:30.297Z,52.23
2022-11-29T18:51:04.584Z,57.17
2022-11-29T18:53:37.673Z,54.80
2022-11-29T18:56:16.053Z,64.15
2022-11-29T18:58:57.999Z,62.90
2022-11-29T19:01:33.169Z,55.28
2022-11-29T19:04:05.718Z,59.38
2022-11-29T19:06:40.227Z,56.50
2022-11-29T19:09:18.503Z,58.25
2022-11-29T19:11:53.274Z,53.97
2022-11-29T19:14:27.348Z,52.77
2022-11-29T19:17:01.612Z,65.70
2022-11-29T19:19:34.301Z,65.45
2022-11-29T19:22:08.500Z,62.88
2022-11-29T19:24:40.961Z,61.13
2022-11-29T19:27:13.889Z,67.30
2022-11-29T19:41:32.677Z,52.00
2022-11-29T19:44:06.481Z,79.43
2022-11-29T19:46:40.703Z,90.60
2022-11-29T19:49:13.776Z,72.70
2022-11-29T19:51:46.349Z,55.17
2022-11-29T19:54:19.348Z,72.28
2022-11-29T19:56:51.879Z,55.47
2022-11-29T19:59:25.454Z,63.65
2022-11-29T20:01:58.013Z,67.00
2022-11-29T20:04:30.995Z,63.65
2022-11-29T20:07:03.927Z,64.72
2022-11-29T20:09:37.067Z,56.60
2022-11-29T20:12:09.906Z,56.83
2022-11-29T20:14:42.885Z,68.95
2022-11-29T20:17:15.441Z,63.75
2022-11-29T20:19:48.637Z,51.22
2022-11-29T20:22:21.403Z,54.93
2022-11-29T20:24:55.035Z,55.47
2022-11-29T20:27:27.622Z,53.58
2022-11-29T20:30:00.643Z,50.20
2022-11-29T20:32:34.691Z,64.07
2022-11-29T20:35:07.946Z,50.80
2022-11-29T20:37:58.580Z,49.67
2022-11-29T20:40:40.554Z,60.60
2022-11-29T20:43:24.505Z,56.65
2022-11-29T20:45:57.558Z,62.73
2022-11-29T20:48:30.342Z,52.00
2022-11-29T20:51:03.585Z,63.67
2022-11-29T20:53:43.420Z,56.85
2022-11-29T20:56:16.330Z,63.33
2022-11-29T20:58:48.956Z,59.53
2022-11-29T21:01:22.279Z,58.28
2022-11-29T21:03:55.107Z,58.28
2022-11-29T21:06:28.216Z,69.00
2022-11-29T21:09:00.766Z,54.30
2022-11-29T21:11:33.883Z,67.25
2022-11-29T21:14:08.027Z,58.75
2022-11-29T21:16:41.038Z,62.50
2022-11-29T21:19:18.768Z,61.22
2022-11-29T21:21:51.665Z,65.65
2022-11-29T21:24:30.942Z,64.38
2022-11-29T21:27:04.053Z,57.47
2022-11-29T21:29:36.869Z,61.95
2022-11-29T21:32:19.416Z,58.42
2022-11-29T21:34:52.323Z,59.90
2022-11-29T21:37:28.643Z,53.28
2022-11-29T21:40:01.998Z,61.72
2022-11-29T21:42:36.492Z,65.28
2022-11-29T21:45:14.817Z,64.35
2022-11-29T21:47:49.250Z,61.55
2022-11-29T21:50:21.958Z,75.63
2022-11-29T21:52:54.815Z,60.73
2022-11-29T21:55:32.126Z,64.72
2022-11-29T21:58:05.573Z,78.13
2022-11-29T22:00:38.071Z,68.93
2022-11-29T22:03:11.286Z,73.10
2022-11-29T22:05:43.827Z,66.88
2022-11-29T22:08:17.359Z,71.97
2022-11-29T22:10:49.908Z,67.88
2022-11-29T22:13:22.777Z,65.53
2022-11-29T22:15:55.388Z,58.60
2022-11-29T22:18:28.682Z,56.15
2022-11-29T22:21:07.723Z,57.20
2022-11-29T22:23:40.939Z,70.10
2022-11-29T22:26:13.520Z,60.45
2022-11-29T22:28:46.586Z,60.75
2022-11-29T22:31:19.178Z,72.65
2022-11-29T22:33:55.508Z,69.13
2022-11-29T22:36:28.300Z,74.70
2022-11-29T22:39:01.293Z,82.20
2022-11-29T22:41:34.378Z,71.22
2022-11-29T22:44:07.673Z,75.15
2022-11-29T22:46:42.558Z,75.32
2022-11-29T22:49:15.584Z,70.10
2022-11-29T22:51:48.166Z,77.38
2022-11-29T22:54:21.261Z,65.40
2022-11-29T22:56:53.769Z,76.72
2022-11-29T22:59:26.719Z,79.07
2022-11-29T23:01:59.263Z,83.65
2022-11-29T23:04:32.189Z,83.60
2022-11-29T23:07:04.763Z,74.90
2022-11-29T23:09:37.747Z,75.80
2022-11-29T23:12:11.055Z,81.57
2022-11-29T23:14:44.196Z,62.35
2022-11-29T23:17:16.852Z,69.63
2022-11-29T23:19:49.947Z,72.40
2022-11-29T23:22:22.450Z,62.72
2022-11-29T23:24:55.373Z,65.23
2022-11-29T23:27:27.912Z,64.85
2022-11-29T23:30:00.788Z,64.97
2022-11-29T23:32:33.413Z,65.27
2022-11-29T23:35:06.420Z,64.88
2022-11-29T23:37:39.113Z,62.63
2022-11-29T23:40:12.593Z,66.03
2022-11-29T23:42:47.204Z,55.63
2022-11-29T23:45:20.306Z,56.30
2022-11-29T23:47:53.540Z,57.13
2022-11-29T23:50:26.451Z,68.82
2022-11-29T23:52:59.219Z,58.53
2022-11-29T23:55:32.202Z,60.90
2022-11-29T23:58:04.827Z,62.70
